createdAt,value
2023-07-03T00:00:33.520Z,76.15
2023-07-03T00:01:33.622Z,76.74
2023-07-03T00:02:33.664Z,81.36
2023-07-03T00:03:33.693Z,73.07
2023-07-03T00:04:33.901Z,76.62
2023-07-03T00:05:33.851Z,77.02
2023-07-03T00:06:33.849Z,70.09
2023-07-03T00:07:33.895Z,80.26
2023-07-03T00:08:33.949Z,73.53
2023-07-03T00:09:34.014Z,80.42
2023-07-03T00:10:34.060Z,69.21
2023-07-03T00:11:34.156Z,80.53
2023-07-03T00:12:34.176Z,77.71
2023-07-03T00:13:34.228Z,70.50
2023-07-03T00:14:34.301Z,76.21
2023-07-03T00:15:34.353Z,80.15
2023-07-03T00:16:34.463Z,71.85
2023-07-03T00:17:34.486Z,76.14
2023-07-03T00:18:34.548Z,72.15
2023-07-03T00:19:34.591Z,68.17
2023-07-03T00:20:34.659Z,82.67
2023-07-03T00:21:34.689Z,88.02
2023-07-03T00:22:34.759Z,74.58
2023-07-03T00:23:34.848Z,72.12
2023-07-03T00:24:34.926Z,76.27
2023-07-03T00:25:34.942Z,78.88
2023-07-03T00:26:35.016Z,71.54
2023-07-03T00:27:35.064Z,77.11
2023-07-03T00:28:35.113Z,78.61
2023-07-03T00:29:35.158Z,75.82
2023-07-03T00:30:35.220Z,75.92
2023-07-03T00:31:35.269Z,76.35
2023-07-03T00:32:35.353Z,79.19
2023-07-03T00:33:35.369Z,69.87
2023-07-03T00:34:35.438Z,67.62
2023-07-03T00:35:35.479Z,74.96
2023-07-03T00:36:35.538Z,77.95
2023-07-03T00:37:35.578Z,72.80
2023-07-03T00:38:35.622Z,73.41
2023-07-03T00:39:35.708Z,73.37
2023-07-03T00:40:35.764Z,73.33
2023-07-03T00:41:35.796Z,79.99
2023-07-03T00:42:35.856Z,69.17
2023-07-03T00:43:35.889Z,69.57
2023-07-03T00:44:35.936Z,68.67
2023-07-03T00:45:35.969Z,75.58
2023-07-03T00:46:36.021Z,72.91
2023-07-03T00:47:36.107Z,73.53
2023-07-03T00:48:36.124Z,72.88
2023-07-03T00:49:36.198Z,79.12
2023-07-03T00:50:36.213Z,73.17
2023-07-03T00:51:36.278Z,78.90
2023-07-03T00:52:36.344Z,76.96
2023-07-03T00:53:36.374Z,67.90
2023-07-03T00:54:36.424Z,68.93
2023-07-03T00:55:36.488Z,73.28
2023-07-03T00:56:36.528Z,74.34
2023-07-03T00:57:36.574Z,73.72
2023-07-03T00:58:36.634Z,69.01
2023-07-03T00:59:36.690Z,81.03
2023-07-03T01:00:43.759Z,82.86
2023-07-03T01:01:36.793Z,83.03
2023-07-03T01:02:37.137Z,83.39
2023-07-03T01:03:36.771Z,83.60
2023-07-03T01:04:36.797Z,75.75
2023-07-03T01:05:36.846Z,71.82
2023-07-03T01:06:36.710Z,79.04
2023-07-03T01:07:36.708Z,71.99
2023-07-03T01:08:37.139Z,80.90
2023-07-03T01:09:36.693Z,68.29
2023-07-03T01:10:36.677Z,77.70
2023-07-03T01:11:37.134Z,72.60
2023-07-03T01:12:36.664Z,78.56
2023-07-03T01:13:36.654Z,75.54
2023-07-03T01:14:36.644Z,75.62
2023-07-03T01:15:36.646Z,72.81
2023-07-03T01:16:36.752Z,71.67
2023-07-03T01:17:36.681Z,75.61
2023-07-03T01:18:36.623Z,73.24
2023-07-03T01:19:36.627Z,74.23
2023-07-03T01:20:36.619Z,69.06
2023-07-03T01:21:36.614Z,65.29
2023-07-03T01:22:36.593Z,77.52
2023-07-03T01:23:36.599Z,71.08
2023-07-03T01:24:36.594Z,74.31
2023-07-03T01:25:36.590Z,79.19
2023-07-03T01:26:36.648Z,68.37
2023-07-03T01:27:36.740Z,66.10
2023-07-03T01:28:36.790Z,79.18
2023-07-03T01:29:36.825Z,68.82
2023-07-03T01:30:36.883Z,73.41
2023-07-03T01:31:37.027Z,77.49
2023-07-03T01:32:37.043Z,71.60
2023-07-03T01:33:37.052Z,73.13
2023-07-03T01:34:37.096Z,75.83
2023-07-03T01:35:37.149Z,71.35
2023-07-03T01:36:37.214Z,76.00
2023-07-03T01:37:37.274Z,73.78
2023-07-03T01:38:37.313Z,73.31
2023-07-03T01:39:37.392Z,70.64
2023-07-03T01:40:37.494Z,72.97
2023-07-03T01:41:37.506Z,80.33
2023-07-03T01:42:37.573Z,67.72
2023-07-03T01:43:37.625Z,75.43
2023-07-03T01:44:37.682Z,79.44
2023-07-03T01:45:37.800Z,81.46
2023-07-03T01:46:37.881Z,78.02
2023-07-03T01:47:37.884Z,66.40
2023-07-03T01:48:37.915Z,66.30
2023-07-03T01:49:37.978Z,70.25
2023-07-03T01:50:38.024Z,72.88
2023-07-03T01:51:38.055Z,70.81
2023-07-03T01:52:38.115Z,71.11
2023-07-03T01:53:38.167Z,73.13
2023-07-03T01:54:38.214Z,76.74
2023-07-03T01:55:38.277Z,74.86
2023-07-03T01:56:38.352Z,79.54
2023-07-03T01:57:38.411Z,69.73
2023-07-03T01:58:38.443Z,77.37
2023-07-03T01:59:38.501Z,74.76
2023-07-03T02:00:38.565Z,72.97
2023-07-03T02:01:38.684Z,78.08
2023-07-03T02:02:38.739Z,70.27
2023-07-03T02:03:38.775Z,70.38
2023-07-03T02:04:38.814Z,73.74
2023-07-03T02:05:38.844Z,66.88
2023-07-03T02:06:38.913Z,72.85
2023-07-03T02:07:38.930Z,67.35
2023-07-03T02:08:38.997Z,72.54
2023-07-03T02:09:39.048Z,68.97
2023-07-03T02:10:39.088Z,70.64
2023-07-03T02:11:39.159Z,71.14
2023-07-03T02:12:39.188Z,80.75
2023-07-03T02:13:39.234Z,75.60
2023-07-03T02:14:39.350Z,68.42
2023-07-03T02:15:39.365Z,73.28
2023-07-03T02:16:39.470Z,65.96
2023-07-03T02:17:39.518Z,72.72
2023-07-03T02:18:39.508Z,71.60
2023-07-03T02:19:39.572Z,71.07
2023-07-03T02:20:39.612Z,70.71
2023-07-03T02:21:39.695Z,73.06
2023-07-03T02:22:40.840Z,66.97
2023-07-03T02:23:39.819Z,80.05
2023-07-03T02:24:39.864Z,77.47
2023-07-03T02:25:39.930Z,77.04
2023-07-03T02:26:39.993Z,69.82
2023-07-03T02:27:40.027Z,70.43
2023-07-03T02:28:40.073Z,67.64
2023-07-03T02:29:40.117Z,65.10
2023-07-03T02:30:40.218Z,64.47
2023-07-03T02:31:40.222Z,70.27
2023-07-03T02:32:40.281Z,67.36
2023-07-03T02:33:40.286Z,66.19
2023-07-03T02:34:40.308Z,66.43
2023-07-03T02:35:40.367Z,70.39
2023-07-03T02:36:40.398Z,69.63
2023-07-03T02:37:40.422Z,69.86
2023-07-03T02:38:40.481Z,72.91
2023-07-03T02:39:40.496Z,63.97
2023-07-03T02:40:40.552Z,78.28
2023-07-03T02:41:40.590Z,79.06
2023-07-03T02:42:40.604Z,68.99
2023-07-03T02:43:40.686Z,73.02
2023-07-03T02:44:40.673Z,71.83
2023-07-03T02:45:40.734Z,72.07
2023-07-03T02:46:40.780Z,62.11
2023-07-03T02:47:40.810Z,71.16
2023-07-03T02:48:40.823Z,65.76
2023-07-03T02:49:40.883Z,72.72
2023-07-03T02:50:40.919Z,72.51
2023-07-03T02:51:40.943Z,65.49
2023-07-03T02:52:41.023Z,74.74
2023-07-03T02:53:41.016Z,74.97
2023-07-03T02:54:41.074Z,72.01
2023-07-03T02:55:41.107Z,72.85
2023-07-03T02:56:41.159Z,71.69
2023-07-03T02:57:41.237Z,74.65
2023-07-03T02:58:41.243Z,75.37
2023-07-03T02:59:41.349Z,65.79
2023-07-03T03:00:41.371Z,67.93
2023-07-03T03:01:41.374Z,73.37
2023-07-03T03:02:41.446Z,73.89
2023-07-03T03:03:41.517Z,67.90
2023-07-03T03:04:41.551Z,65.98
2023-07-03T03:05:41.564Z,76.21
2023-07-03T03:06:41.618Z,68.97
2023-07-03T03:07:41.661Z,68.36
2023-07-03T03:08:41.714Z,68.42
2023-07-03T03:09:41.763Z,69.51
2023-07-03T03:10:41.824Z,76.39
2023-07-03T03:11:41.879Z,67.70
2023-07-03T03:12:41.921Z,71.19
2023-07-03T03:13:41.994Z,66.59
2023-07-03T03:14:42.055Z,70.73
2023-07-03T03:15:42.090Z,71.06
2023-07-03T03:16:42.291Z,69.37
2023-07-03T03:17:42.234Z,73.34
2023-07-03T03:18:42.262Z,73.57
2023-07-03T03:19:42.312Z,72.49
2023-07-03T03:20:43.868Z,64.94
2023-07-03T03:21:42.408Z,62.70
2023-07-03T03:22:42.456Z,71.37
2023-07-03T03:23:42.489Z,71.77
2023-07-03T03:24:42.557Z,68.48
2023-07-03T03:25:42.637Z,66.60
2023-07-03T03:26:42.660Z,71.52
2023-07-03T03:27:42.719Z,66.63
2023-07-03T03:28:42.785Z,67.73
2023-07-03T03:29:42.844Z,69.38
2023-07-03T03:30:42.893Z,74.28
2023-07-03T03:31:42.952Z,71.06
2023-07-03T03:32:43.013Z,64.23
2023-07-03T03:33:43.037Z,72.11
2023-07-03T03:34:43.117Z,70.53
2023-07-03T03:35:43.135Z,71.08
2023-07-03T03:36:43.199Z,60.62
2023-07-03T03:37:43.245Z,66.64
2023-07-03T03:38:43.286Z,69.45
2023-07-03T03:39:43.347Z,64.80
2023-07-03T03:40:43.413Z,69.75
2023-07-03T03:41:43.461Z,68.33
2023-07-03T03:42:43.506Z,70.00
2023-07-03T03:43:43.538Z,70.69
2023-07-03T03:44:43.587Z,67.49
2023-07-03T03:45:43.616Z,66.85
2023-07-03T03:46:43.645Z,70.15
2023-07-03T03:47:43.998Z,69.58
2023-07-03T03:48:43.815Z,68.27
2023-07-03T03:49:43.769Z,74.16
2023-07-03T03:50:43.802Z,65.34
2023-07-03T03:51:43.849Z,61.88
2023-07-03T03:52:43.896Z,70.65
2023-07-03T03:53:43.954Z,67.84
2023-07-03T03:54:43.993Z,72.04
2023-07-03T03:55:44.023Z,76.05
2023-07-03T03:56:44.074Z,63.15
2023-07-03T03:57:44.101Z,68.64
2023-07-03T03:58:44.141Z,67.12
2023-07-03T03:59:44.205Z,72.72
2023-07-03T04:00:44.204Z,70.53
2023-07-03T04:01:44.371Z,71.46
2023-07-03T04:02:44.352Z,67.70
2023-07-03T04:03:46.399Z,66.38
2023-07-03T04:04:44.391Z,72.87
2023-07-03T04:05:44.441Z,73.76
2023-07-03T04:06:44.492Z,73.15
2023-07-03T04:07:44.482Z,70.99
2023-07-03T04:08:44.523Z,72.81
2023-07-03T04:09:44.556Z,67.37
2023-07-03T04:10:44.596Z,64.65
2023-07-03T04:11:44.623Z,69.90
2023-07-03T04:12:44.658Z,64.63
2023-07-03T04:13:44.815Z,68.29
2023-07-03T04:14:44.725Z,62.06
2023-07-03T04:15:44.755Z,63.54
2023-07-03T04:16:44.829Z,57.30
2023-07-03T04:17:44.848Z,62.46
2023-07-03T04:18:44.853Z,58.41
2023-07-03T04:19:44.888Z,64.78
2023-07-03T04:20:44.915Z,62.12
2023-07-03T04:21:44.959Z,65.07
2023-07-03T04:22:45.022Z,64.14
2023-07-03T04:23:45.030Z,63.84
2023-07-03T04:24:45.069Z,65.09
2023-07-03T04:25:45.124Z,68.64
2023-07-03T04:26:45.153Z,72.54
2023-07-03T04:27:45.177Z,66.32
2023-07-03T04:28:45.213Z,61.42
2023-07-03T04:29:45.245Z,69.73
2023-07-03T04:30:45.271Z,67.60
2023-07-03T04:31:45.367Z,63.31
2023-07-03T04:32:45.405Z,71.19
2023-07-03T04:33:45.385Z,59.66
2023-07-03T04:34:45.415Z,64.97
2023-07-03T04:35:45.461Z,64.40
2023-07-03T04:36:45.493Z,66.56
2023-07-03T04:37:45.519Z,66.15
2023-07-03T04:38:45.552Z,64.81
2023-07-03T04:39:45.582Z,57.42
2023-07-03T04:40:45.610Z,65.67
2023-07-03T04:41:45.637Z,66.40
2023-07-03T04:42:45.699Z,76.66
2023-07-03T04:43:45.754Z,62.09
2023-07-03T04:44:45.844Z,62.72
2023-07-03T04:45:45.850Z,73.55
2023-07-03T04:46:45.899Z,65.69
2023-07-03T04:47:45.980Z,65.56
2023-07-03T04:48:45.919Z,67.74
2023-07-03T04:49:45.982Z,66.71
2023-07-03T04:50:46.009Z,59.35
2023-07-03T04:51:46.024Z,58.94
2023-07-03T04:52:46.053Z,68.11
2023-07-03T04:53:46.115Z,57.07
2023-07-03T04:54:46.129Z,67.50
2023-07-03T04:55:46.169Z,62.06
2023-07-03T04:56:46.233Z,67.85
2023-07-03T04:57:46.224Z,56.77
2023-07-03T04:58:46.255Z,65.75
2023-07-03T04:59:46.279Z,69.73
2023-07-03T05:00:46.304Z,68.39
2023-07-03T05:01:46.459Z,60.70
2023-07-03T05:02:46.421Z,62.59
2023-07-03T05:03:46.466Z,68.76
2023-07-03T05:04:46.506Z,65.34
2023-07-03T05:05:46.438Z,63.15
2023-07-03T05:06:46.501Z,63.96
2023-07-03T05:07:46.527Z,59.33
2023-07-03T05:08:46.546Z,58.44
2023-07-03T05:09:46.555Z,67.69
2023-07-03T05:10:46.579Z,62.88
2023-07-03T05:11:46.655Z,66.42
2023-07-03T05:12:46.691Z,64.48
2023-07-03T05:13:46.690Z,60.62
2023-07-03T05:14:46.748Z,59.69
2023-07-03T05:15:46.782Z,59.76
2023-07-03T05:16:46.849Z,57.03
2023-07-03T05:17:46.925Z,65.12
2023-07-03T05:18:46.918Z,62.96
2023-07-03T05:19:47.020Z,64.17
2023-07-03T05:20:47.026Z,67.32
2023-07-03T05:21:47.095Z,68.08
2023-07-03T05:22:47.182Z,67.40
2023-07-03T05:23:47.162Z,65.00
2023-07-03T05:24:47.238Z,70.14
2023-07-03T05:25:47.372Z,55.20
2023-07-03T05:26:47.374Z,58.72
2023-07-03T05:27:47.395Z,60.52
2023-07-03T05:28:47.482Z,65.69
2023-07-03T05:29:47.515Z,61.67
2023-07-03T05:30:50.176Z,66.66
2023-07-03T05:31:47.821Z,66.18
2023-07-03T05:32:47.672Z,66.40
2023-07-03T05:33:47.544Z,53.68
2023-07-03T05:34:47.539Z,62.16
2023-07-03T05:35:51.069Z,54.57
2023-07-03T05:36:48.512Z,55.24
2023-07-03T05:37:47.531Z,57.72
2023-07-03T05:38:47.558Z,67.52
2023-07-03T05:39:47.644Z,89.45
2023-07-03T05:40:47.491Z,100.47
2023-07-03T05:41:47.775Z,93.12
2023-07-03T05:42:47.492Z,99.37
2023-07-03T05:43:47.472Z,82.21
2023-07-03T05:44:47.558Z,78.81
2023-07-03T05:45:47.589Z,82.61
2023-07-03T05:46:47.683Z,76.73
2023-07-03T05:47:47.725Z,71.21
2023-07-03T05:48:47.755Z,63.19
2023-07-03T05:49:47.799Z,56.98
2023-07-03T05:50:47.877Z,56.81
2023-07-03T05:51:47.934Z,57.05
2023-07-03T05:52:48.004Z,45.52
2023-07-03T05:53:48.077Z,41.23
2023-07-03T05:54:48.170Z,44.45
2023-07-03T05:55:48.401Z,40.67
2023-07-03T05:56:48.252Z,47.30
2023-07-03T05:57:48.328Z,51.29
2023-07-03T05:58:48.389Z,57.04
2023-07-03T05:59:48.495Z,54.64
2023-07-03T06:00:48.568Z,56.31
2023-07-03T06:01:48.775Z,61.89
2023-07-03T06:02:48.794Z,64.46
2023-07-03T06:03:48.708Z,108.39
2023-07-03T06:04:48.800Z,100.94
2023-07-03T06:05:49.115Z,91.24
2023-07-03T06:06:48.863Z,94.43
2023-07-03T06:07:48.915Z,95.73
2023-07-03T06:08:48.972Z,98.48
2023-07-03T06:09:49.022Z,101.71
2023-07-03T06:10:49.085Z,105.58
2023-07-03T06:11:49.153Z,104.55
2023-07-03T06:12:49.216Z,108.22
2023-07-03T06:13:49.246Z,114.94
2023-07-03T06:14:49.280Z,129.19
2023-07-03T06:15:49.751Z,146.93
2023-07-03T06:16:49.515Z,146.01
2023-07-03T06:17:49.480Z,137.33
2023-07-03T06:18:49.457Z,131.65
2023-07-03T06:19:49.513Z,136.23
2023-07-03T06:20:49.570Z,131.65
2023-07-03T06:21:49.588Z,132.03
2023-07-03T06:22:49.624Z,194.97
2023-07-03T06:23:49.655Z,178.54
2023-07-03T06:24:49.700Z,172.00
2023-07-03T06:25:50.109Z,168.41
2023-07-03T06:26:49.763Z,162.44
2023-07-03T06:27:49.809Z,158.50
2023-07-03T06:28:49.827Z,155.35
2023-07-03T06:29:49.857Z,154.24
2023-07-03T06:30:51.395Z,155.61
2023-07-03T06:31:49.950Z,154.12
2023-07-03T06:32:49.981Z,156.14
2023-07-03T06:33:49.974Z,160.08
2023-07-03T06:34:50.032Z,162.82
2023-07-03T06:35:50.106Z,161.33
2023-07-03T06:36:50.098Z,169.49
2023-07-03T06:37:50.100Z,171.23
2023-07-03T06:38:50.126Z,172.75
2023-07-03T06:39:50.150Z,172.33
2023-07-03T06:40:50.220Z,167.75
2023-07-03T06:41:50.843Z,160.91
2023-07-03T06:42:50.273Z,157.34
2023-07-03T06:43:50.365Z,151.21
2023-07-03T06:44:50.283Z,143.66
2023-07-03T06:45:50.474Z,132.35
2023-07-03T06:46:50.429Z,114.16
2023-07-03T06:47:50.404Z,104.56
2023-07-03T06:48:50.449Z,91.60
2023-07-03T06:49:50.487Z,84.12
2023-07-03T06:50:50.494Z,80.23
2023-07-03T06:51:50.819Z,65.75
2023-07-03T06:52:50.605Z,55.32
2023-07-03T06:53:50.621Z,45.13
2023-07-03T06:54:50.666Z,40.79
2023-07-03T06:55:50.888Z,29.59
2023-07-03T06:56:50.787Z,25.35
2023-07-03T06:57:50.830Z,26.98
2023-07-03T06:58:50.889Z,24.11
2023-07-03T06:59:50.997Z,30.08
2023-07-03T07:00:50.988Z,25.00
2023-07-03T07:01:51.338Z,27.00
2023-07-03T07:02:51.111Z,25.00
2023-07-03T07:03:51.197Z,28.75
2023-07-03T07:04:51.237Z,27.37
2023-07-03T07:05:51.597Z,25.77
2023-07-03T07:06:51.308Z,25.32
2023-07-03T07:07:51.371Z,26.58
2023-07-03T07:08:51.442Z,25.20
2023-07-03T07:09:51.488Z,26.32
2023-07-03T07:10:51.537Z,25.90
2023-07-03T07:11:51.608Z,27.94
2023-07-03T07:12:51.702Z,26.97
2023-07-03T07:13:51.956Z,25.13
2023-07-03T07:14:51.793Z,28.52
2023-07-03T07:15:52.334Z,26.65
2023-07-03T07:16:51.972Z,27.44
2023-07-03T07:17:52.621Z,25.22
2023-07-03T07:18:52.055Z,31.36
2023-07-03T07:19:52.091Z,25.00
2023-07-03T07:20:52.156Z,25.11
2023-07-03T07:21:52.226Z,25.20
2023-07-03T07:22:52.294Z,25.00
2023-07-03T07:23:52.355Z,27.54
2023-07-03T07:24:52.417Z,25.11
2023-07-03T07:25:52.641Z,27.54
2023-07-03T07:26:52.511Z,25.45
2023-07-03T07:27:52.562Z,25.46
2023-07-03T07:28:52.643Z,25.54
2023-07-03T07:29:52.678Z,25.10
2023-07-03T07:30:52.893Z,25.52
2023-07-03T07:31:52.869Z,32.86
2023-07-03T07:32:53.014Z,39.50
2023-07-03T07:33:52.922Z,53.19
2023-07-03T07:34:52.996Z,66.33
2023-07-03T07:35:53.262Z,83.28
2023-07-03T07:36:53.175Z,94.78
2023-07-03T07:37:53.181Z,119.21
2023-07-03T07:38:56.398Z,132.71
2023-07-03T07:39:53.260Z,144.59
2023-07-03T07:40:53.230Z,154.98
2023-07-03T07:41:53.215Z,151.82
2023-07-03T07:42:53.208Z,146.84
2023-07-03T07:43:53.230Z,148.99
2023-07-03T07:44:53.198Z,138.72
2023-07-03T07:45:53.716Z,129.18
2023-07-03T07:46:53.253Z,124.94
2023-07-03T07:47:53.498Z,117.85
2023-07-03T07:48:53.181Z,110.57
2023-07-03T07:49:53.199Z,109.99
2023-07-03T07:50:53.183Z,102.64
2023-07-03T07:51:53.166Z,97.65
2023-07-03T07:52:53.153Z,92.96
2023-07-03T07:53:53.173Z,88.07
2023-07-03T07:54:53.202Z,84.00
2023-07-03T07:55:53.257Z,78.20
2023-07-03T07:56:53.131Z,74.15
2023-07-03T07:57:53.128Z,70.96
2023-07-03T07:58:53.186Z,65.48
2023-07-03T07:59:53.118Z,58.31
2023-07-03T08:00:53.144Z,53.26
2023-07-03T08:01:53.187Z,45.53
2023-07-03T08:02:53.116Z,45.33
2023-07-03T08:03:53.361Z,39.16
2023-07-03T08:04:53.214Z,36.19
2023-07-03T08:05:53.418Z,32.75
2023-07-03T08:06:53.249Z,28.30
2023-07-03T08:07:53.266Z,25.00
2023-07-03T08:08:53.357Z,25.00
2023-07-03T08:09:53.396Z,25.00
2023-07-03T08:10:53.427Z,26.74
2023-07-03T08:11:53.508Z,26.66
2023-07-03T08:12:53.627Z,25.26
2023-07-03T08:13:53.623Z,25.27
2023-07-03T08:14:53.712Z,26.33
2023-07-03T08:15:54.285Z,25.97
2023-07-03T08:16:54.010Z,26.03
2023-07-03T08:17:53.874Z,25.00
2023-07-03T08:18:53.926Z,25.00
2023-07-03T08:19:54.100Z,25.47
2023-07-03T08:20:54.028Z,26.38
2023-07-03T08:21:54.109Z,24.87
2023-07-03T08:22:54.163Z,25.13
2023-07-03T08:23:54.192Z,26.51
2023-07-03T08:24:54.285Z,34.06
2023-07-03T08:25:54.520Z,39.63
2023-07-03T08:26:54.393Z,47.05
2023-07-03T08:27:54.415Z,51.96
2023-07-03T08:28:54.491Z,50.84
2023-07-03T08:29:56.068Z,46.86
2023-07-03T08:30:54.539Z,49.18
2023-07-03T08:31:54.598Z,46.57
2023-07-03T08:32:54.631Z,42.04
2023-07-03T08:33:54.625Z,39.61
2023-07-03T08:37:54.488Z,30.59
2023-07-03T08:38:54.483Z,27.36
2023-07-03T08:39:54.506Z,25.19
2023-07-03T08:40:54.470Z,20.98
2023-07-03T08:41:54.554Z,17.74
2023-07-03T08:42:54.455Z,30.17
2023-07-03T08:43:54.457Z,38.79
2023-07-03T08:44:54.472Z,52.00
2023-07-03T08:45:54.436Z,69.84
2023-07-03T08:47:09.942Z,85.84
2023-07-03T08:47:55.502Z,86.47
2023-07-03T08:48:54.418Z,89.98
2023-07-03T08:49:54.423Z,98.62
2023-07-03T08:50:54.721Z,114.37
2023-07-03T08:51:54.847Z,139.52
2023-07-03T08:52:54.414Z,145.96
2023-07-03T08:53:54.405Z,153.87
2023-07-03T08:54:54.440Z,161.95
2023-07-03T08:55:54.388Z,168.25
2023-07-03T08:56:54.376Z,173.74
2023-07-03T08:57:54.408Z,183.25
2023-07-03T08:58:54.457Z,198.90
2023-07-03T08:59:54.528Z,200.18
2023-07-03T09:00:54.767Z,203.36
2023-07-03T09:01:54.712Z,207.15
2023-07-03T09:02:54.733Z,212.19
2023-07-03T09:03:54.856Z,215.74
2023-07-03T09:04:54.726Z,217.07
2023-07-03T09:05:54.729Z,221.32
2023-07-03T09:06:54.776Z,228.54
2023-07-03T09:07:54.925Z,233.61
2023-07-03T09:08:54.819Z,239.56
2023-07-03T09:09:54.883Z,242.42
2023-07-03T09:10:55.062Z,246.75
2023-07-03T09:11:55.354Z,249.40
2023-07-03T09:12:54.956Z,249.47
2023-07-03T09:13:55.054Z,249.79
2023-07-03T09:14:54.953Z,250.00
2023-07-03T09:15:55.014Z,250.00
2023-07-03T09:16:55.042Z,250.12
2023-07-03T09:17:55.098Z,250.00
2023-07-03T09:18:55.092Z,249.09
2023-07-03T09:19:55.032Z,249.59
2023-07-03T09:20:55.215Z,250.00
2023-07-03T09:21:55.101Z,248.67
2023-07-03T09:22:55.098Z,249.40
2023-07-03T09:23:55.193Z,248.08
2023-07-03T09:24:55.115Z,248.91
2023-07-03T09:25:55.368Z,248.76
2023-07-03T09:26:55.183Z,248.63
2023-07-03T09:27:55.153Z,248.71
2023-07-03T09:28:56.078Z,250.00
2023-07-03T09:29:55.234Z,250.00
2023-07-03T09:30:55.318Z,249.12
2023-07-03T09:31:55.515Z,249.26
2023-07-03T09:32:55.307Z,249.19
2023-07-03T09:33:55.290Z,250.00
2023-07-03T09:34:55.391Z,247.20
2023-07-03T09:35:56.164Z,246.49
2023-07-03T09:36:55.313Z,245.55
2023-07-03T09:37:56.324Z,245.84
2023-07-03T09:38:55.329Z,246.11
2023-07-03T09:39:55.465Z,245.22
2023-07-03T09:40:57.029Z,245.03
2023-07-03T09:41:55.377Z,245.71
2023-07-03T09:42:55.359Z,244.53
2023-07-03T09:43:55.345Z,243.89
2023-07-03T09:44:55.333Z,242.70
2023-07-03T09:45:55.341Z,242.95
2023-07-03T09:46:55.387Z,242.27
2023-07-03T09:47:55.359Z,242.22
2023-07-03T09:48:55.335Z,242.43
2023-07-03T09:49:55.380Z,243.25
2023-07-03T09:51:05.811Z,242.16
2023-07-03T09:51:56.343Z,242.36
2023-07-03T09:53:07.722Z,242.64
2023-07-03T09:53:56.430Z,242.39
2023-07-03T09:54:55.306Z,242.65
2023-07-03T09:55:55.355Z,242.87
2023-07-03T09:56:55.272Z,243.51
2023-07-03T09:57:55.271Z,242.84
2023-07-03T09:58:55.283Z,242.70
2023-07-03T09:59:55.256Z,243.32
2023-07-03T10:00:55.544Z,242.73
2023-07-03T10:03:55.387Z,241.98
2023-07-03T10:06:55.318Z,242.04
2023-07-03T10:07:55.325Z,242.46
2023-07-03T10:11:55.386Z,242.10
2023-07-03T10:12:55.268Z,242.56
2023-07-03T10:13:55.176Z,242.97
2023-07-03T10:14:55.163Z,242.70
2023-07-03T10:15:55.153Z,242.03
2023-07-03T10:16:55.194Z,242.59
2023-07-03T10:17:55.220Z,241.43
2023-07-03T10:18:55.147Z,240.68
2023-07-03T10:19:55.132Z,240.09
2023-07-03T10:20:55.123Z,239.99
2023-07-03T10:21:55.154Z,240.93
2023-07-03T10:22:55.119Z,238.84
2023-07-03T10:23:55.102Z,238.78
2023-07-03T10:24:55.102Z,238.69
2023-07-03T10:25:55.115Z,238.72
2023-07-03T10:26:55.097Z,239.25
2023-07-03T10:27:55.230Z,240.21
2023-07-03T10:28:55.074Z,239.50
2023-07-03T10:29:55.076Z,238.64
2023-07-03T10:30:55.074Z,238.83
2023-07-03T10:31:55.135Z,237.96
2023-07-03T10:32:55.121Z,236.60
2023-07-03T10:33:55.073Z,238.27
2023-07-03T10:34:55.044Z,236.33
2023-07-03T10:35:55.058Z,237.60
2023-07-03T10:36:55.021Z,237.85
2023-07-03T10:37:55.024Z,237.23
2023-07-03T10:38:55.022Z,237.34
2023-07-03T10:39:55.042Z,236.33
2023-07-03T10:40:55.000Z,234.74
2023-07-03T10:41:54.997Z,234.34
2023-07-03T10:42:55.007Z,236.42
2023-07-03T10:43:55.068Z,235.74
2023-07-03T10:44:55.032Z,234.54
2023-07-03T10:45:55.001Z,235.14
2023-07-03T10:46:54.981Z,234.30
2023-07-03T10:47:54.986Z,233.50
2023-07-03T10:48:54.966Z,236.37
2023-07-03T10:49:54.961Z,234.52
2023-07-03T10:50:54.936Z,233.76
2023-07-03T10:51:54.949Z,236.17
2023-07-03T10:52:54.938Z,234.16
2023-07-03T10:53:54.934Z,233.36
2023-07-03T10:54:54.962Z,234.18
2023-07-03T10:55:54.914Z,233.43
2023-07-03T10:56:54.918Z,234.44
2023-07-03T10:57:54.921Z,232.63
2023-07-03T10:58:54.919Z,232.30
2023-07-03T10:59:54.985Z,233.02
2023-07-03T11:00:54.972Z,232.56
2023-07-03T11:01:54.945Z,232.37
2023-07-03T11:02:54.930Z,232.84
2023-07-03T11:04:10.614Z,232.53
2023-07-03T11:04:55.905Z,232.64
2023-07-03T11:05:54.872Z,232.69
2023-07-03T11:06:54.893Z,232.57
2023-07-03T11:07:54.857Z,231.57
2023-07-03T11:08:54.845Z,232.03
2023-07-03T11:09:54.845Z,231.69
2023-07-03T11:10:54.839Z,231.59
2023-07-03T11:11:54.842Z,231.81
2023-07-03T11:12:54.894Z,230.28
2023-07-03T11:13:54.833Z,232.02
2023-07-03T11:14:54.817Z,229.50
2023-07-03T11:15:55.023Z,229.43
2023-07-03T11:16:54.822Z,230.77
2023-07-03T11:19:54.789Z,229.70
2023-07-03T11:22:54.785Z,229.81
2023-07-03T11:23:54.752Z,230.09
2023-07-03T11:24:54.757Z,230.17
2023-07-03T11:27:54.756Z,229.74
2023-07-03T11:28:54.745Z,230.06
2023-07-03T11:29:54.750Z,230.02
2023-07-03T11:30:54.825Z,230.18
2023-07-03T11:31:54.750Z,230.76
2023-07-03T11:32:54.752Z,229.33
2023-07-03T11:35:54.731Z,229.07
2023-07-03T11:39:54.737Z,229.06
2023-07-03T11:40:55.280Z,229.24
2023-07-03T11:43:54.688Z,229.04
2023-07-03T11:44:54.699Z,229.52
2023-07-03T11:45:54.688Z,229.32
2023-07-03T11:46:54.829Z,229.14
2023-07-03T11:47:54.705Z,228.51
2023-07-03T11:48:54.694Z,227.83
2023-07-03T11:49:54.681Z,227.97
2023-07-03T11:50:54.658Z,226.52
2023-07-03T11:51:54.634Z,227.29
2023-07-03T11:52:54.639Z,226.81
2023-07-03T11:53:54.658Z,226.32
2023-07-03T11:54:54.611Z,225.83
2023-07-03T11:55:54.625Z,224.15
2023-07-03T11:56:54.626Z,224.43
2023-07-03T11:58:04.507Z,223.99
2023-07-03T11:58:57.445Z,224.17
2023-07-03T11:59:54.580Z,224.24
2023-07-03T12:00:54.600Z,224.75
2023-07-03T12:01:54.570Z,224.92
2023-07-03T12:02:54.652Z,225.40
2023-07-03T12:03:54.595Z,224.92
2023-07-03T12:04:54.551Z,225.87
2023-07-03T12:05:54.559Z,224.84
2023-07-03T12:06:54.547Z,223.45
2023-07-03T12:07:54.564Z,222.09
2023-07-03T12:08:54.525Z,224.86
2023-07-03T12:09:54.542Z,223.94
2023-07-03T12:10:56.388Z,223.51
2023-07-03T12:11:54.575Z,223.61
2023-07-03T12:12:54.629Z,223.87
2023-07-03T12:13:54.719Z,222.81
2023-07-03T12:14:54.701Z,224.46
2023-07-03T12:15:54.704Z,222.78
2023-07-03T12:16:54.782Z,221.66
2023-07-03T12:17:54.797Z,222.62
2023-07-03T12:18:54.810Z,221.53
2023-07-03T12:19:54.861Z,221.92
2023-07-03T12:20:54.878Z,222.68
2023-07-03T12:21:54.917Z,221.83
2023-07-03T12:22:54.963Z,221.18
2023-07-03T12:23:55.031Z,220.36
2023-07-03T12:24:55.030Z,222.11
2023-07-03T12:25:55.060Z,221.79
2023-07-03T12:26:55.095Z,219.69
2023-07-03T12:27:55.136Z,220.48
2023-07-03T12:28:55.166Z,220.65
2023-07-03T12:29:55.201Z,221.03
2023-07-03T12:30:55.330Z,220.24
2023-07-03T12:31:55.309Z,220.58
2023-07-03T12:32:55.368Z,220.60
2023-07-03T12:33:55.339Z,219.39
2023-07-03T12:34:55.388Z,220.02
2023-07-03T12:35:55.423Z,218.91
2023-07-03T12:37:02.146Z,218.90
2023-07-03T12:37:56.428Z,219.05
2023-07-03T12:38:55.418Z,219.41
2023-07-03T12:39:55.424Z,219.67
2023-07-03T12:40:55.425Z,220.72
2023-07-03T12:41:55.440Z,219.07
2023-07-03T12:42:55.410Z,219.15
2023-07-03T12:44:07.326Z,219.07
2023-07-03T12:44:56.397Z,219.20
2023-07-03T12:45:55.593Z,219.27
2023-07-03T12:46:55.405Z,219.43
2023-07-03T12:47:55.427Z,219.36
2023-07-03T12:48:55.348Z,219.66
2023-07-03T12:49:55.375Z,218.28
2023-07-03T12:50:55.384Z,218.46
2023-07-03T12:51:55.451Z,218.02
2023-07-03T12:52:55.357Z,218.54
2023-07-03T12:53:55.337Z,219.51
2023-07-03T12:55:05.398Z,216.83
2023-07-03T12:55:56.326Z,216.96
2023-07-03T12:56:55.338Z,217.19
2023-07-03T12:57:55.302Z,218.12
2023-07-03T12:58:55.320Z,216.94
2023-07-03T12:59:55.299Z,217.47
2023-07-03T13:00:55.301Z,219.26
2023-07-03T13:01:55.288Z,217.24
2023-07-03T13:02:55.350Z,216.83
2023-07-03T13:03:55.283Z,216.33
2023-07-03T13:04:55.350Z,217.89
2023-07-03T13:05:55.666Z,217.13
2023-07-03T13:06:55.260Z,215.81